sensor_id;sensor_type;location;lat;lon;timestamp;pressure;altitude;pressure_sealevel;temperature;humidity
42887;BME280;29032;56.028;92.904;2023-05-25T00:00:39;99882.19;;;9.51;35.36
42887;BME280;29032;56.028;92.904;2023-05-25T00:05:42;99888.97;;;9.50;36.43
42887;BME280;29032;56.028;92.904;2023-05-25T00:10:44;99876.38;;;9.54;35.95
42887;BME280;29032;56.028;92.904;2023-05-25T00:15:46;99890.25;;;9.65;35.56
42887;BME280;29032;56.028;92.904;2023-05-25T00:20:50;99888.25;;;9.71;35.31
42887;BME280;29032;56.028;92.904;2023-05-25T00:26:10;99887.22;;;9.91;34.83
42887;BME280;29032;56.028;92.904;2023-05-25T00:31:12;99891.50;;;9.76;35.65
42887;BME280;29032;56.028;92.904;2023-05-25T00:36:15;99884.94;;;9.84;35.13
42887;BME280;29032;56.028;92.904;2023-05-25T00:46:38;99882.69;;;9.83;36.20
42887;BME280;29032;56.028;92.904;2023-05-25T00:52:00;99886.47;;;10.02;35.44
42887;BME280;29032;56.028;92.904;2023-05-25T00:57:03;99882.94;;;9.68;36.01
42887;BME280;29032;56.028;92.904;2023-05-25T01:02:08;99891.03;;;9.71;35.89
42887;BME280;29032;56.028;92.904;2023-05-25T01:07:16;99894.78;;;9.74;35.77
42887;BME280;29032;56.028;92.904;2023-05-25T01:12:19;99891.00;;;9.66;35.99
42887;BME280;29032;56.028;92.904;2023-05-25T01:17:23;99904.88;;;9.66;36.48
42887;BME280;29032;56.028;92.904;2023-05-25T01:22:30;99902.09;;;9.66;36.33
42887;BME280;29032;56.028;92.904;2023-05-25T01:27:37;99904.38;;;9.79;36.12
42887;BME280;29032;56.028;92.904;2023-05-25T01:32:42;99905.63;;;10.00;36.22
42887;BME280;29032;56.028;92.904;2023-05-25T01:37:49;99894.03;;;10.07;35.70
42887;BME280;29032;56.028;92.904;2023-05-25T01:42:52;99894.53;;;9.89;35.65
42887;BME280;29032;56.028;92.904;2023-05-25T01:48:01;99895.53;;;9.97;35.56
42887;BME280;29032;56.028;92.904;2023-05-25T01:53:29;99890.50;;;10.01;36.24
42887;BME280;29032;56.028;92.904;2023-05-25T01:58:34;99886.47;;;10.02;35.67
42887;BME280;29032;56.028;92.904;2023-05-25T02:03:57;99882.91;;;10.18;36.16
42887;BME280;29032;56.028;92.904;2023-05-25T02:09:01;99885.88;;;10.37;34.92
42887;BME280;29032;56.028;92.904;2023-05-25T02:14:03;99887.34;;;10.55;34.58
42887;BME280;29032;56.028;92.904;2023-05-25T02:19:05;99879.00;;;10.61;34.56
42887;BME280;29032;56.028;92.904;2023-05-25T02:29:47;99879.50;;;11.17;33.19
42887;BME280;29032;56.028;92.904;2023-05-25T02:34:49;99880.59;;;11.03;32.45
42887;BME280;29032;56.028;92.904;2023-05-25T02:39:54;99877.38;;;10.93;32.86
42887;BME280;29032;56.028;92.904;2023-05-25T02:44:56;99879.88;;;10.97;31.97
42887;BME280;29032;56.028;92.904;2023-05-25T02:49:58;99879.13;;;10.91;32.29
42887;BME280;29032;56.028;92.904;2023-05-25T02:55:02;99869.03;;;10.99;32.40
42887;BME280;29032;56.028;92.904;2023-05-25T03:00:11;99867.72;;;11.05;32.04
42887;BME280;29032;56.028;92.904;2023-05-25T03:05:14;99876.31;;;11.02;32.93
42887;BME280;29032;56.028;92.904;2023-05-25T03:10:17;99872.69;;;11.18;32.54
42887;BME280;29032;56.028;92.904;2023-05-25T03:15:19;99879.44;;;11.28;31.91
42887;BME280;29032;56.028;92.904;2023-05-25T03:20:22;99874.09;;;11.36;31.74
42887;BME280;29032;56.028;92.904;2023-05-25T03:25:25;99883.34;;;11.50;31.88
42887;BME280;29032;56.028;92.904;2023-05-25T03:30:28;99878.13;;;11.41;32.03
42887;BME280;29032;56.028;92.904;2023-05-25T03:35:30;99872.38;;;11.27;32.32
42887;BME280;29032;56.028;92.904;2023-05-25T03:40:34;99877.06;;;11.44;32.38
42887;BME280;29032;56.028;92.904;2023-05-25T03:51:33;99870.34;;;11.93;32.08
42887;BME280;29032;56.028;92.904;2023-05-25T03:56:37;99867.69;;;12.07;31.26
42887;BME280;29032;56.028;92.904;2023-05-25T04:01:40;99862.50;;;12.22;31.91
42887;BME280;29032;56.028;92.904;2023-05-25T04:06:42;99852.19;;;12.41;31.68
42887;BME280;29032;56.028;92.904;2023-05-25T04:11:46;99853.41;;;12.65;32.27
42887;BME280;29032;56.028;92.904;2023-05-25T04:16:48;99860.78;;;12.81;30.68
42887;BME280;29032;56.028;92.904;2023-05-25T04:21:51;99856.31;;;12.97;30.97
42887;BME280;29032;56.028;92.904;2023-05-25T04:27:13;99854.69;;;13.01;30.29
42887;BME280;29032;56.028;92.904;2023-05-25T04:32:15;99859.97;;;13.05;30.90
42887;BME280;29032;56.028;92.904;2023-05-25T04:37:22;99862.91;;;13.13;31.94
42887;BME280;29032;56.028;92.904;2023-05-25T04:42:26;99863.72;;;13.26;29.94
42887;BME280;29032;56.028;92.904;2023-05-25T04:52:51;99856.69;;;13.57;30.20
42887;BME280;29032;56.028;92.904;2023-05-25T04:57:55;99859.88;;;13.94;31.02
42887;BME280;29032;56.028;92.904;2023-05-25T05:02:58;99850.34;;;14.02;30.88
42887;BME280;29032;56.028;92.904;2023-05-25T05:08:18;99855.63;;;14.32;29.99
42887;BME280;29032;56.028;92.904;2023-05-25T05:13:22;99856.81;;;14.37;30.43
42887;BME280;29032;56.028;92.904;2023-05-25T05:18:24;99857.00;;;13.99;30.40
42887;BME280;29032;56.028;92.904;2023-05-25T05:23:26;99846.56;;;13.73;30.24
42887;BME280;29032;56.028;92.904;2023-05-25T05:28:31;99862.50;;;13.60;29.67
42887;BME280;29032;56.028;92.904;2023-05-25T05:38:53;99856.28;;;13.16;29.92
42887;BME280;29032;56.028;92.904;2023-05-25T05:43:57;99861.81;;;13.02;31.27
42887;BME280;29032;56.028;92.904;2023-05-25T05:48:59;99859.38;;;12.93;32.33
42887;BME280;29032;56.028;92.904;2023-05-25T05:54:20;99867.38;;;13.02;30.92
42887;BME280;29032;56.028;92.904;2023-05-25T05:59:23;99876.09;;;13.12;30.04
42887;BME280;29032;56.028;92.904;2023-05-25T06:04:25;99867.13;;;13.00;31.08
42887;BME280;29032;56.028;92.904;2023-05-25T06:09:28;99869.78;;;13.12;32.40
42887;BME280;29032;56.028;92.904;2023-05-25T06:14:35;99871.56;;;13.09;30.53
42887;BME280;29032;56.028;92.904;2023-05-25T06:19:42;99869.38;;;13.21;30.39
42887;BME280;29032;56.028;92.904;2023-05-25T06:25:03;99879.22;;;13.41;29.94
42887;BME280;29032;56.028;92.904;2023-05-25T06:30:08;99880.31;;;13.19;30.86
42887;BME280;29032;56.028;92.904;2023-05-25T06:35:17;99871.34;;;13.26;31.68
42887;BME280;29032;56.028;92.904;2023-05-25T06:40:37;99875.38;;;13.63;30.40
42887;BME280;29032;56.028;92.904;2023-05-25T06:45:43;99873.25;;;13.69;30.21
42887;BME280;29032;56.028;92.904;2023-05-25T06:50:45;99878.06;;;13.68;31.54
42887;BME280;29032;56.028;92.904;2023-05-25T06:55:47;99870.88;;;13.60;29.94
42887;BME280;29032;56.028;92.904;2023-05-25T07:06:47;99869.75;;;13.81;29.78
42887;BME280;29032;56.028;92.904;2023-05-25T07:11:49;99881.66;;;13.82;30.27
42887;BME280;29032;56.028;92.904;2023-05-25T07:16:51;99886.47;;;13.81;29.86
42887;BME280;29032;56.028;92.904;2023-05-25T07:21:54;99892.19;;;13.89;29.85
42887;BME280;29032;56.028;92.904;2023-05-25T07:26:56;99891.03;;;13.66;31.64
42887;BME280;29032;56.028;92.904;2023-05-25T07:31:58;99889.97;;;13.69;31.13
42887;BME280;29032;56.028;92.904;2023-05-25T07:37:02;99888.28;;;13.79;29.33
42887;BME280;29032;56.028;92.904;2023-05-25T07:42:05;99882.28;;;13.75;30.53
42887;BME280;29032;56.028;92.904;2023-05-25T07:47:07;99881.31;;;13.86;29.49
42887;BME280;29032;56.028;92.904;2023-05-25T07:52:11;99881.19;;;13.78;29.83
42887;BME280;29032;56.028;92.904;2023-05-25T07:57:13;99884.41;;;13.69;30.10
42887;BME280;29032;56.028;92.904;2023-05-25T08:02:14;99895.97;;;13.73;29.33
42887;BME280;29032;56.028;92.904;2023-05-25T08:07:19;99890.91;;;13.90;28.05
42887;BME280;29032;56.028;92.904;2023-05-25T08:12:21;99896.47;;;13.90;28.40
42887;BME280;29032;56.028;92.904;2023-05-25T08:17:41;99903.75;;;13.93;28.80
42887;BME280;29032;56.028;92.904;2023-05-25T08:22:45;99896.38;;;13.96;29.50
42887;BME280;29032;56.028;92.904;2023-05-25T08:27:47;99901.44;;;13.97;28.95
42887;BME280;29032;56.028;92.904;2023-05-25T08:38:10;99898.00;;;14.04;28.98
42887;BME280;29032;56.028;92.904;2023-05-25T08:43:12;99899.50;;;14.05;28.86
42887;BME280;29032;56.028;92.904;2023-05-25T08:48:15;99900.16;;;14.11;28.06
42887;BME280;29032;56.028;92.904;2023-05-25T08:58:44;99893.09;;;14.50;29.29
42887;BME280;29032;56.028;92.904;2023-05-25T09:04:06;99901.16;;;14.41;28.79
42887;BME280;29032;56.028;92.904;2023-05-25T09:09:09;99906.19;;;14.29;28.45
42887;BME280;29032;56.028;92.904;2023-05-25T09:14:12;99908.13;;;14.21;28.40
42887;BME280;29032;56.028;92.904;2023-05-25T09:24:54;99902.75;;;14.36;29.36
42887;BME280;29032;56.028;92.904;2023-05-25T09:29:57;99899.22;;;14.35;28.21
42887;BME280;29032;56.028;92.904;2023-05-25T09:35:06;99910.50;;;14.43;28.34
42887;BME280;29032;56.028;92.904;2023-05-25T09:40:10;99902.66;;;14.42;29.52
42887;BME280;29032;56.028;92.904;2023-05-25T09:45:12;99905.91;;;14.59;28.21
42887;BME280;29032;56.028;92.904;2023-05-25T09:50:14;99901.19;;;14.67;28.15
42887;BME280;29032;56.028;92.904;2023-05-25T09:55:47;99885.91;;;14.95;27.80
42887;BME280;29032;56.028;92.904;2023-05-25T10:00:52;99900.09;;;14.70;27.91
42887;BME280;29032;56.028;92.904;2023-05-25T10:05:54;99901.19;;;14.80;27.59
42887;BME280;29032;56.028;92.904;2023-05-25T10:10:58;99895.22;;;14.97;28.31
42887;BME280;29032;56.028;92.904;2023-05-25T10:16:01;99895.38;;;15.26;28.33
42887;BME280;29032;56.028;92.904;2023-05-25T10:26:33;99906.91;;;15.56;26.53
42887;BME280;29032;56.028;92.904;2023-05-25T10:31:37;99901.28;;;15.35;25.91
42887;BME280;29032;56.028;92.904;2023-05-25T10:36:40;99896.56;;;15.30;27.48
42887;BME280;29032;56.028;92.904;2023-05-25T10:41:44;99903.75;;;15.26;26.37
42887;BME280;29032;56.028;92.904;2023-05-25T10:46:47;99908.19;;;15.21;27.51
42887;BME280;29032;56.028;92.904;2023-05-25T10:51:57;99914.94;;;15.26;27.29
42887;BME280;29032;56.028;92.904;2023-05-25T11:02:49;99910.94;;;14.87;28.04
42887;BME280;29032;56.028;92.904;2023-05-25T11:07:54;99910.31;;;14.68;28.21
42887;BME280;29032;56.028;92.904;2023-05-25T11:13:20;99907.97;;;14.72;28.09
42887;BME280;29032;56.028;92.904;2023-05-25T11:18:22;99924.69;;;14.32;28.72
42887;BME280;29032;56.028;92.904;2023-05-25T11:28:47;99922.28;;;14.09;29.11
42887;BME280;29032;56.028;92.904;2023-05-25T11:34:07;99927.19;;;14.03;30.90
42887;BME280;29032;56.028;92.904;2023-05-25T11:39:28;99925.78;;;13.97;30.05
42887;BME280;29032;56.028;92.904;2023-05-25T11:44:32;99916.84;;;13.53;32.68
42887;BME280;29032;56.028;92.904;2023-05-25T11:49:37;99924.53;;;13.47;32.56
42887;BME280;29032;56.028;92.904;2023-05-25T11:54:40;99932.50;;;13.56;30.95
42887;BME280;29032;56.028;92.904;2023-05-25T11:59:48;99931.66;;;13.80;31.00
42887;BME280;29032;56.028;92.904;2023-05-25T12:04:54;99928.25;;;13.87;31.04
42887;BME280;29032;56.028;92.904;2023-05-25T12:10:06;99937.16;;;13.99;30.59
42887;BME280;29032;56.028;92.904;2023-05-25T12:15:11;99935.31;;;13.88;31.48
42887;BME280;29032;56.028;92.904;2023-05-25T12:20:15;99938.50;;;13.79;30.37
42887;BME280;29032;56.028;92.904;2023-05-25T12:25:19;99928.88;;;13.61;30.29
42887;BME280;29032;56.028;92.904;2023-05-25T12:30:28;99931.59;;;13.67;30.74
42887;BME280;29032;56.028;92.904;2023-05-25T12:35:43;99933.88;;;13.49;29.83
42887;BME280;29032;56.028;92.904;2023-05-25T12:46:25;99934.44;;;13.80;30.01
42887;BME280;29032;56.028;92.904;2023-05-25T12:51:37;99937.44;;;13.82;31.65
42887;BME280;29032;56.028;92.904;2023-05-25T12:56:52;99933.94;;;13.95;30.34
42887;BME280;29032;56.028;92.904;2023-05-25T13:02:15;99936.69;;;13.81;31.01
42887;BME280;29032;56.028;92.904;2023-05-25T13:07:17;99937.06;;;13.72;30.53
42887;BME280;29032;56.028;92.904;2023-05-25T13:12:19;99945.16;;;13.57;31.25
42887;BME280;29032;56.028;92.904;2023-05-25T13:17:22;99944.19;;;13.54;29.88
42887;BME280;29032;56.028;92.904;2023-05-25T13:27:46;99948.91;;;13.41;32.19
42887;BME280;29032;56.028;92.904;2023-05-25T13:32:51;99953.91;;;13.48;32.80
42887;BME280;29032;56.028;92.904;2023-05-25T13:37:53;99949.22;;;13.37;32.09
42887;BME280;29032;56.028;92.904;2023-05-25T13:42:55;99953.59;;;13.33;28.65
42887;BME280;29032;56.028;92.904;2023-05-25T13:47:58;99948.56;;;13.31;29.28
42887;BME280;29032;56.028;92.904;2023-05-25T13:53:00;99954.06;;;13.18;29.94
42887;BME280;29032;56.028;92.904;2023-05-25T13:58:02;99963.81;;;13.06;29.20
42887;BME280;29032;56.028;92.904;2023-05-25T14:03:09;99971.72;;;13.01;30.64
42887;BME280;29032;56.028;92.904;2023-05-25T14:08:13;99971.50;;;12.99;29.86
42887;BME280;29032;56.028;92.904;2023-05-25T14:13:15;99976.38;;;12.93;29.07
42887;BME280;29032;56.028;92.904;2023-05-25T14:18:18;99969.41;;;12.81;28.97
42887;BME280;29032;56.028;92.904;2023-05-25T14:23:39;99976.84;;;12.73;30.14
42887;BME280;29032;56.028;92.904;2023-05-25T14:34:21;99979.31;;;12.82;31.60
42887;BME280;29032;56.028;92.904;2023-05-25T14:39:23;99978.53;;;12.82;29.43
42887;BME280;29032;56.028;92.904;2023-05-25T14:44:25;99976.94;;;12.67;31.65
42887;BME280;29032;56.028;92.904;2023-05-25T14:49:28;99969.06;;;12.66;30.73
42887;BME280;29032;56.028;92.904;2023-05-25T14:54:30;99975.56;;;12.50;30.64
42887;BME280;29032;56.028;92.904;2023-05-25T14:59:32;99983.88;;;12.55;29.99
42887;BME280;29032;56.028;92.904;2023-05-25T15:04:36;99977.78;;;12.57;31.60
42887;BME280;29032;56.028;92.904;2023-05-25T15:09:38;99972.56;;;12.48;29.56
42887;BME280;29032;56.028;92.904;2023-05-25T15:14:40;99978.72;;;12.40;29.18
42887;BME280;29032;56.028;92.904;2023-05-25T15:19:43;99982.78;;;12.39;29.42
42887;BME280;29032;56.028;92.904;2023-05-25T15:24:45;99985.59;;;12.34;29.83
42887;BME280;29032;56.028;92.904;2023-05-25T15:29:47;99982.38;;;12.24;31.46
42887;BME280;29032;56.028;92.904;2023-05-25T15:34:51;99990.50;;;12.22;30.63
42887;BME280;29032;56.028;92.904;2023-05-25T15:39:53;99978.34;;;12.25;29.90
42887;BME280;29032;56.028;92.904;2023-05-25T15:44:55;99980.38;;;12.19;29.98
42887;BME280;29032;56.028;92.904;2023-05-25T15:50:01;99980.31;;;12.30;30.61
42887;BME280;29032;56.028;92.904;2023-05-25T15:55:03;99978.88;;;12.18;29.98
42887;BME280;29032;56.028;92.904;2023-05-25T16:05:45;99978.47;;;12.03;30.22
42887;BME280;29032;56.028;92.904;2023-05-25T16:10:47;99987.16;;;11.93;30.93
42887;BME280;29032;56.028;92.904;2023-05-25T16:15:51;99984.53;;;12.07;29.97
42887;BME280;29032;56.028;92.904;2023-05-25T16:26:15;99980.66;;;11.85;30.65
42887;BME280;29032;56.028;92.904;2023-05-25T16:31:17;99976.06;;;11.88;31.04
42887;BME280;29032;56.028;92.904;2023-05-25T16:36:39;99978.53;;;11.97;30.53
42887;BME280;29032;56.028;92.904;2023-05-25T16:41:41;99988.19;;;11.90;30.33
42887;BME280;29032;56.028;92.904;2023-05-25T16:46:43;99978.06;;;11.93;30.06
42887;BME280;29032;56.028;92.904;2023-05-25T16:51:46;99983.13;;;11.89;29.73
42887;BME280;29032;56.028;92.904;2023-05-25T16:56:48;99971.59;;;11.79;31.25
42887;BME280;29032;56.028;92.904;2023-05-25T17:02:08;99981.03;;;12.01;30.57
42887;BME280;29032;56.028;92.904;2023-05-25T17:07:12;99976.97;;;12.02;30.67
42887;BME280;29032;56.028;92.904;2023-05-25T17:12:14;99976.78;;;11.94;31.71
42887;BME280;29032;56.028;92.904;2023-05-25T17:17:16;99975.25;;;11.99;31.04
42887;BME280;29032;56.028;92.904;2023-05-25T17:22:19;99976.97;;;12.02;30.48
42887;BME280;29032;56.028;92.904;2023-05-25T17:27:21;99970.66;;;12.01;30.76
42887;BME280;29032;56.028;92.904;2023-05-25T17:38:03;99984.72;;;12.20;31.35
42887;BME280;29032;56.028;92.904;2023-05-25T17:43:05;99969.75;;;12.23;32.79
42887;BME280;29032;56.028;92.904;2023-05-25T17:48:07;99971.78;;;12.17;32.19
42887;BME280;29032;56.028;92.904;2023-05-25T17:53:29;99974.44;;;12.04;32.26
42887;BME280;29032;56.028;92.904;2023-05-25T17:58:49;99971.66;;;11.68;34.84
42887;BME280;29032;56.028;92.904;2023-05-25T18:03:51;99974.94;;;11.67;34.32
42887;BME280;29032;56.028;92.904;2023-05-25T18:08:55;99978.47;;;11.67;33.83
42887;BME280;29032;56.028;92.904;2023-05-25T18:13:57;99963.44;;;11.51;34.52
42887;BME280;29032;56.028;92.904;2023-05-25T18:18:59;99960.13;;;11.53;35.64
42887;BME280;29032;56.028;92.904;2023-05-25T18:24:02;99966.00;;;11.44;34.05
42887;BME280;29032;56.028;92.904;2023-05-25T18:29:23;99958.97;;;11.31;34.83
42887;BME280;29032;56.028;92.904;2023-05-25T18:34:25;99963.81;;;11.25;34.37
42887;BME280;29032;56.028;92.904;2023-05-25T18:39:29;99963.13;;;11.14;35.04
42887;BME280;29032;56.028;92.904;2023-05-25T18:44:31;99937.44;;;10.91;35.32
42887;BME280;29032;56.028;92.904;2023-05-25T18:49:51;99956.19;;;11.31;33.55
42887;BME280;29032;56.028;92.904;2023-05-25T18:54:54;99959.78;;;11.26;33.75
42887;BME280;29032;56.028;92.904;2023-05-25T19:00:14;99958.75;;;11.29;33.62
42887;BME280;29032;56.028;92.904;2023-05-25T19:10:56;99964.03;;;11.33;32.72
42887;BME280;29032;56.028;92.904;2023-05-25T19:15:58;99964.66;;;11.09;34.47
42887;BME280;29032;56.028;92.904;2023-05-25T19:21:00;99959.34;;;11.11;34.53
42887;BME280;29032;56.028;92.904;2023-05-25T19:26:22;99962.31;;;11.24;34.40
42887;BME280;29032;56.028;92.904;2023-05-25T19:31:24;99944.88;;;11.24;34.41
42887;BME280;29032;56.028;92.904;2023-05-25T19:36:26;99958.09;;;11.06;34.97
42887;BME280;29032;56.028;92.904;2023-05-25T19:41:30;99956.59;;;11.05;35.36
42887;BME280;29032;56.028;92.904;2023-05-25T19:46:32;99951.34;;;10.91;35.07
42887;BME280;29032;56.028;92.904;2023-05-25T19:51:34;99951.88;;;10.83;35.67
42887;BME280;29032;56.028;92.904;2023-05-25T19:56:37;99953.63;;;10.92;34.60
42887;BME280;29032;56.028;92.904;2023-05-25T20:02:00;99954.53;;;11.12;34.64
42887;BME280;29032;56.028;92.904;2023-05-25T20:07:02;99952.88;;;10.92;36.17
42887;BME280;29032;56.028;92.904;2023-05-25T20:12:06;99945.81;;;10.85;36.51
42887;BME280;29032;56.028;92.904;2023-05-25T20:17:08;99956.44;;;10.64;36.86
42887;BME280;29032;56.028;92.904;2023-05-25T20:22:28;99963.00;;;10.61;36.81
42887;BME280;29032;56.028;92.904;2023-05-25T20:27:31;99952.94;;;10.58;37.41
42887;BME280;29032;56.028;92.904;2023-05-25T20:32:33;99950.91;;;10.59;36.70
42887;BME280;29032;56.028;92.904;2023-05-25T20:37:53;99944.31;;;10.78;36.14
42887;BME280;29032;56.028;92.904;2023-05-25T20:43:15;99952.88;;;10.92;34.51
42887;BME280;29032;56.028;92.904;2023-05-25T20:48:17;99935.78;;;10.48;36.82
42887;BME280;29032;56.028;92.904;2023-05-25T20:53:19;99939.06;;;10.41;38.52
42887;BME280;29032;56.028;92.904;2023-05-25T20:58:23;99940.09;;;10.49;38.18
42887;BME280;29032;56.028;92.904;2023-05-25T21:03:25;99942.34;;;10.51;34.73
42887;BME280;29032;56.028;92.904;2023-05-25T21:08:27;99942.09;;;10.54;34.90
42887;BME280;29032;56.028;92.904;2023-05-25T21:13:30;99936.03;;;10.56;34.28
42887;BME280;29032;56.028;92.904;2023-05-25T21:18:32;99935.78;;;10.54;34.16
42887;BME280;29032;56.028;92.904;2023-05-25T21:23:34;99935.03;;;10.53;34.17
42887;BME280;29032;56.028;92.904;2023-05-25T21:28:56;99933.00;;;10.48;34.00
42887;BME280;29032;56.028;92.904;2023-05-25T21:33:58;99937.31;;;10.44;34.01
42887;BME280;29032;56.028;92.904;2023-05-25T21:39:00;99941.88;;;10.36;34.30
42887;BME280;29032;56.028;92.904;2023-05-25T21:44:04;99933.06;;;10.37;34.17
42887;BME280;29032;56.028;92.904;2023-05-25T21:49:06;99938.34;;;10.30;33.95
42887;BME280;29032;56.028;92.904;2023-05-25T21:54:08;99930.28;;;10.20;33.99
42887;BME280;29032;56.028;92.904;2023-05-25T21:59:11;99926.78;;;10.14;34.09
42887;BME280;29032;56.028;92.904;2023-05-25T22:04:13;99936.38;;;10.08;33.88
42887;BME280;29032;56.028;92.904;2023-05-25T22:09:34;99925.53;;;10.21;34.21
42887;BME280;29032;56.028;92.904;2023-05-25T22:14:37;99934.88;;;10.07;34.04
42887;BME280;29032;56.028;92.904;2023-05-25T22:19:58;99930.31;;;9.81;34.31
42887;BME280;29032;56.028;92.904;2023-05-25T22:25:00;99943.41;;;9.75;34.83
42887;BME280;29032;56.028;92.904;2023-05-25T22:35:27;99948.72;;;9.79;34.36
42887;BME280;29032;56.028;92.904;2023-05-25T22:46:27;99941.13;;;10.18;33.11
42887;BME280;29032;56.028;92.904;2023-05-25T22:51:29;99942.66;;;9.97;34.29
42887;BME280;29032;56.028;92.904;2023-05-25T22:56:31;99948.97;;;9.81;34.35
42887;BME280;29032;56.028;92.904;2023-05-25T23:01:34;99951.50;;;9.79;34.87
42887;BME280;29032;56.028;92.904;2023-05-25T23:06:36;99955.75;;;9.68;35.17
42887;BME280;29032;56.028;92.904;2023-05-25T23:11:38;99947.44;;;9.74;34.94
42887;BME280;29032;56.028;92.904;2023-05-25T23:16:42;99956.25;;;9.84;34.70
42887;BME280;29032;56.028;92.904;2023-05-25T23:21:44;99959.53;;;9.77;34.80
42887;BME280;29032;56.028;92.904;2023-05-25T23:26:46;99955.50;;;9.66;34.86
42887;BME280;29032;56.028;92.904;2023-05-25T23:31:50;99955.72;;;9.63;35.11
42887;BME280;29032;56.028;92.904;2023-05-25T23:36:52;99956.72;;;9.54;35.27
42887;BME280;29032;56.028;92.904;2023-05-25T23:41:53;99958.75;;;9.59;35.13
42887;BME280;29032;56.028;92.904;2023-05-25T23:46:57;99952.97;;;9.68;35.49
42887;BME280;29032;56.028;92.904;2023-05-25T23:51:59;99951.22;;;9.65;35.16
42887;BME280;29032;56.028;92.904;2023-05-25T23:57:01;99959.81;;;9.79;35.53
